• Join FlightAware (Why Join?)
  • Login
  • US Flag 
03:08PM EDT


 

Airport Tracker/Info


-or-


 

Live Flight TrackerFlight Track Log ✈ SWA1802 ✈ 17-Jun-2013 ✈ KMDW - KLAX

Flight Track Log - Related Links

Times and Time Zones

All times are in EDT time to prevent confusion due to time zone crossing. See the SWA1802 flight status page for this flight to view local times or setup timezone preferences in your user account.

Time Position Orientation Groundspeed Altitude Reporting Facility
EDT Latitude Longitude Course Direction KTS MPH feet Rate Location/Type
06:43PM 41.8000 -87.8167 283° West 193 222 2,700  Level Chicago TRACON
06:44PM 41.7822 -87.8578 240° Southwest 224 258 3,300 2,340 Climbing Chicago Center
06:45PM 41.7542 -87.9461 247° West 253 291 6,300 3,180 Climbing Chicago Center
06:46PM 41.7319 -88.0611 256° West 279 321 9,900 2,700 Climbing Chicago Center
06:47PM 41.7633 -88.1519 295° West 275 316 12,000 1,500 Climbing Chicago Center
06:48PM 41.7536 -88.2558 263° West 283 326 13,100 1,200 Climbing Chicago Center
06:49PM 41.9227 -88.6028 283° West  Level FlightAware Approximate
06:49PM 41.7450 -88.3814 265° West 332 382 14,500  Level Chicago Center
06:50PM 41.7319 -88.5456 264° West 370 426 17,700 2,460 Climbing Chicago Center
06:51PM 41.7236 -88.6814 265° West 372 428 19,700 1,800 Climbing Chicago Center
06:52PM 41.6939 -88.8225 254° West 393 452 21,500 1,680 Climbing Chicago Center
06:53PM 41.6644 -88.9686 255° West 407 468 23,200 1,560 Climbing Chicago Center
06:54PM 41.6353 -89.1181 255° West 417 480 24,800 1,620 Climbing Chicago Center
06:55PM 41.5989 -89.3011 255° West 426 490 26,600 1,740 Climbing Chicago Center
06:56PM 41.5689 -89.4536 255° West 428 493 28,500 1,860 Climbing Chicago Center
06:57PM 41.5414 -89.5883 255° West 417 480 30,500 1,680 Climbing Chicago Center
06:58PM 41.5075 -89.7572 255° West 398 458 32,100 1,140 Climbing Chicago Center
06:59PM 41.4778 -89.8981 254° West 397 457 33,000 420 Climbing Chicago Center
07:00PM 41.4642 -90.0447 263° West 403 464 33,000  Level Chicago Center
07:01PM 41.4558 -90.1919 266° West 404 465 33,000  Level Chicago Center
07:02PM 41.4461 -90.3697 266° West 403 464 33,000  Level Chicago Center
07:03PM 41.4403 -90.5172 267° West 402 463 33,000 420 Level Chicago Center
07:04PM 41.4322 -90.6717 266° West 420 483 33,900 960 Climbing Chicago Center
07:05PM 41.4106 -90.8175 259° West 405 466 35,100 960 Climbing Chicago Center
07:07PM 41.3914 -90.9603 260° West 396 456 36,000 420 Climbing Chicago Center
07:08PM 41.3714 -91.1042 260° West 396 456 36,000  Level Chicago Center
07:09PM 41.3461 -91.2761 259° West 396 456 36,000  Level Chicago Center
07:10PM 41.3261 -91.4125 259° West 402 463 36,000  Level Chicago Center
07:11PM 41.3056 -91.5572 259° West 402 463 36,000  Level Chicago Center
07:12PM 41.2789 -91.7306 258° West 402 463 36,000  Level Chicago Center
07:13PM 41.2572 -91.8744 259° West 401 461 36,000  Level Chicago Center
07:14PM 41.2350 -92.0203 259° West 403 464 36,000  Level Chicago Center
07:15PM 41.2108 -92.1814 259° West 405 466 36,000  Level Chicago Center
07:16PM 41.1875 -92.3244 258° West 403 464 36,000  Level Chicago Center
07:17PM 41.1656 -92.4708 259° West 406 467 36,000  Level Chicago Center
07:18PM 41.1433 -92.6147 258° West 403 464 36,000  Level Chicago Center
07:19PM 41.1158 -92.7875 258° West 404 465 36,000  Level Chicago Center
07:20PM 41.0925 -92.9319 258° West 406 467 36,000  Level Chicago Center
07:21PM 41.0694 -93.0769 258° West 407 468 36,000  Level Chicago Center
07:22PM 41.0508 -93.1908 258° West 403 464 36,000  Level Minneapolis Center
07:23PM 41.0278 -93.3347 258° West 403 464 36,000  Level Minneapolis Center
07:24PM 40.9983 -93.5117 258° West 412 474 36,000  Level Minneapolis Center
07:25PM 40.9692 -93.6881 258° West 414 476 36,000  Level Minneapolis Center
07:26PM 40.9444 -93.8364 258° West 416 479 36,000  Level Minneapolis Center
07:27PM 40.9133 -94.0156 257° West 419 482 36,000  Level Minneapolis Center
07:28PM 40.8867 -94.1642 257° West 419 482 36,000  Level Minneapolis Center
07:29PM 40.8603 -94.3150 257° West 422 486 36,000  Level Minneapolis Center
07:30PM 40.8292 -94.4928 257° West 422 486 36,000  Level Minneapolis Center
07:32PM 40.8019 -94.6408 256° West 417 480 36,000  Level Minneapolis Center
07:33PM 40.7808 -94.7597 257° West 416 479 36,000  Level Minneapolis Center
07:34PM 40.7492 -94.9378 257° West 415 478 36,000  Level Minneapolis Center
07:35PM 40.7278 -95.0567 257° West 416 479 36,000  Level Minneapolis Center
07:36PM 40.6897 -95.2619 256° West 413 475 36,000  Level Minneapolis Center
07:37PM 40.6647 -95.4086 257° West 411 473 36,000  Level Minneapolis Center
07:38PM 40.6361 -95.5569 256° West 414 476 36,000  Level Minneapolis Center
07:39PM 40.6094 -95.7019 256° West 409 471 36,000  Level Minneapolis Center
07:40PM 40.5817 -95.8528 256° West 418 481 36,000  Level Minneapolis Center
07:41PM 40.5533 -96.0003 256° West 418 481 36,000  Level Minneapolis Center
07:42PM 40.5194 -96.1786 256° West 417 480 36,000  Level Minneapolis Center
07:43PM 40.4908 -96.3272 256° West 417 480 36,000  Level Minneapolis Center
07:44PM 40.4625 -96.4731 256° West 413 475 36,000  Level Minneapolis Center
07:45PM 40.4339 -96.6208 256° West 415 478 36,000  Level Minneapolis Center
07:46PM 40.4053 -96.7672 256° West 415 478 36,000  Level Minneapolis Center
07:47PM 40.3758 -96.9125 255° West 413 475 36,000  Level Minneapolis Center
07:48PM 40.3417 -97.0886 256° West 414 476 36,000  Level Minneapolis Center
07:49PM 40.3111 -97.2342 255° West 414 476 36,000  Level Minneapolis Center
07:50PM 40.2814 -97.3814 255° West 411 473 36,000  Level Minneapolis Center
07:51PM 40.2386 -97.5214 248° West 418 481 36,000  Level Minneapolis Center
07:52PM 40.1819 -97.6528 241° Southwest 415 478 36,000  Level Minneapolis Center
07:53PM 40.1508 -97.7975 254° West 415 478 36,000  Level Minneapolis Center
07:54PM 40.1208 -97.9442 255° West 416 479 36,000  Level Minneapolis Center
07:56PM 40.0867 -98.1175 256° West 412 474 36,000  Level Minneapolis Center
07:57PM 40.0489 -98.2914 254° West 413 475 36,000  Level Minneapolis Center
07:58PM 40.0192 -98.4344 255° West 409 471 36,000  Level Minneapolis Center
07:59PM 39.9889 -98.5767 255° West 408 470 36,000  Level Minneapolis Center
08:00PM 39.9586 -98.7206 255° West 408 470 36,000  Level Minneapolis Center
08:01PM 39.9286 -98.8633 255° West 408 470 36,000  Level Minneapolis Center
08:02PM 39.9094 -98.9486 254° West 408 470 36,000  Level Denver Center
08:03PM 39.8728 -99.1175 254° West 405 466 36,000  Level Denver Center
08:04PM 39.8364 -99.2858 254° West 402 463 36,000  Level Denver Center
08:05PM 39.7986 -99.4539 254° West 403 464 36,000  Level Denver Center
08:06PM 39.7619 -99.6225 254° West 404 465 36,000  Level Denver Center
08:07PM 39.7292 -99.7636 253° West 405 466 36,000  Level Denver Center
08:08PM 39.6972 -99.9036 254° West 404 465 36,000  Level Denver Center
08:09PM 39.6847 -100.0775 265° West 407 468 36,000  Level Denver Center
08:10PM 39.6925 -100.2142 274° West 403 464 36,000  Level Denver Center
08:11PM 39.7153 -100.3450 283° West 391 450 36,000  Level Denver Center
08:13PM 39.7464 -100.5203 283° West 389 448 36,000  Level Denver Center
08:14PM 39.7747 -100.6733 284° West 390 449 36,000  Level Denver Center
08:15PM 39.7997 -100.8033 284° West 388 447 36,000  Level Denver Center
08:16PM 39.8289 -100.9578 284° West 393 452 36,000  Level Denver Center
08:17PM 39.8558 -101.0897 285° West 394 453 36,000  Level Denver Center
08:18PM 39.8828 -101.2225 285° West 395 455 36,000  Level Denver Center
08:19PM 39.9161 -101.3781 286° West 398 458 36,000  Level Denver Center
08:20PM 39.9133 -101.5633 269° West 405 466 36,000  Level Denver Center
08:21PM 39.9047 -101.7050 266° West 410 472 36,000  Level Denver Center
08:22PM 39.8708 -101.8642 255° West 417 480 36,000  Level Denver Center
08:23PM 39.8331 -101.9953 249° West 406 467 36,000  Level Denver Center
08:24PM 39.7997 -102.1067 249° West 412 474 36,000  Level Denver Center
08:25PM 39.7461 -102.2844 249° West 414 476 36,000  Level Denver Center
08:26PM 39.7058 -102.4189 249° West 417 480 36,000  Level Denver Center
08:27PM 39.6589 -102.5758 249° West 419 482 36,000  Level Denver Center
08:28PM 39.6119 -102.7308 249° West 425 489 36,000  Level Denver Center
08:29PM 39.5669 -102.8736 248° West 427 491 36,000  Level Denver Center
08:30PM 39.5383 -103.0206 256° West 423 487 36,000  Level Denver Center
08:31PM 39.5181 -103.1683 260° West 419 482 36,000  Level Denver Center
08:32PM 39.5169 -103.3206 270° West 422 486 36,000  Level Denver Center
08:33PM 39.5128 -103.4403 267° West 419 482 36,000 60 Level Denver Center
08:34PM 39.5103 -103.6225 269° West 421 484 36,200 600 Climbing Denver Center
08:35PM 39.5069 -103.8036 269° West 423 487 37,300 840 Climbing Denver Center
08:36PM 39.5058 -103.9522 269° West 412 474 38,000 300 Climbing Denver Center
08:38PM 39.5081 -104.1033 271° West 422 486 38,000  Level Denver Center
08:39PM 39.5072 -104.2525 270° West 416 479 38,000  Level Denver Center
08:40PM 39.5075 -104.4058 270° West 423 487 38,000  Level Denver Center
08:41PM 39.5075 -104.5564 270° West 405 466 38,000  Level Denver Center
08:42PM 39.5075 -104.7147 270° West 428 493 38,000  Level Denver Center
08:43PM 39.5081 -104.8747 270° West 431 496 38,000  Level Denver Center
08:44PM 39.5083 -105.0575 270° West 422 486 38,000  Level Denver Center
08:45PM 39.4900 -105.2031 261° West 409 471 38,000  Level Denver Center
08:46PM 39.4350 -105.3378 242° Southwest 422 486 38,000  Level Denver Center
08:47PM 39.3806 -105.4714 242° Southwest 416 479 38,000  Level Denver Center
08:48PM 39.3286 -105.5992 242° Southwest 404 465 38,000  Level Denver Center
08:49PM 39.2753 -105.7303 242° Southwest 411 473 38,000 -540 Level Denver Center
08:50PM 39.2111 -105.8872 242° Southwest 413 475 37,000 -540 Descending Denver Center
08:51PM 39.1550 -106.0178 241° Southwest 416 479 37,000  Level Denver Center
08:52PM 39.1008 -106.1494 242° Southwest 416 479 37,000  Level Denver Center
08:53PM 39.0478 -106.2767 242° Southwest 420 483 37,000  Level Denver Center
08:54PM 38.9942 -106.4039 242° Southwest 420 483 37,000 300 Level Denver Center
08:55PM 38.9322 -106.5483 241° Southwest 415 478 37,700 420 Climbing Denver Center
08:56PM 38.8775 -106.6789 242° Southwest 410 472 38,000 120 Climbing Denver Center
08:58PM 38.8111 -106.8325 241° Southwest 407 468 38,000  Level Denver Center
08:59PM 38.7442 -106.9889 241° Southwest 414 476 38,000  Level Denver Center
09:00PM 38.6772 -107.1444 241° Southwest 415 478 38,000  Level Denver Center
09:01PM 38.6244 -107.2686 241° Southwest 415 478 38,000  Level Denver Center
09:02PM 38.5611 -107.4136 241° Southwest 417 480 38,000  Level Denver Center
09:03PM 38.5072 -107.5375 241° Southwest 415 478 38,000  Level Denver Center
09:04PM 38.4533 -107.6606 241° Southwest 412 474 38,000  Level Denver Center
09:05PM 38.3906 -107.8039 241° Southwest 412 474 38,000  Level Denver Center
09:06PM 38.3361 -107.9283 241° Southwest 419 482 38,000  Level Denver Center
09:07PM 38.2731 -108.0703 241° Southwest 415 478 38,000  Level Denver Center
09:08PM 38.2181 -108.1917 240° Southwest 412 474 38,000  Level Denver Center
09:09PM 38.1547 -108.3344 241° Southwest 414 476 38,000  Level Denver Center
09:10PM 38.1008 -108.4550 240° Southwest 413 475 38,000  Level Denver Center
09:11PM 38.0419 -108.5858 240° Southwest 409 471 38,000  Level Denver Center
09:12PM 37.9883 -108.7022 240° Southwest 403 464 38,000  Level Denver Center
09:13PM 37.9247 -108.8450 241° Southwest 413 475 38,000  Level Denver Center
09:14PM 37.8692 -108.9631 239° Southwest 411 473 38,000  Level Denver Center
09:15PM 37.8061 -109.1022 240° Southwest 410 472 38,000  Level Denver Center
09:16PM 37.7522 -109.2211 240° Southwest 409 471 38,000  Level Denver Center
09:17PM 37.6881 -109.3578 239° Southwest 407 468 38,000  Level Denver Center
09:18PM 37.6339 -109.4761 240° Southwest 408 470 38,000  Level Denver Center
09:19PM 37.5703 -109.6122 240° Southwest 405 466 38,000  Level Denver Center
09:20PM 37.5011 -109.7147 230° Southwest 414 476 38,000  Level Denver Center
09:21PM 37.3742 -109.7658 198° South 432 497 38,000  Level Denver Center
09:22PM 37.2639 -109.8050 196° South 431 496 38,000  Level Denver Center
09:23PM 37.1358 -109.8478 195° South 428 493 38,000  Level Denver Center
09:24PM 37.0272 -109.8883 197° South 427 491 38,000  Level Denver Center
09:25PM 36.9508 -110.0106 232° Southwest 404 465 38,000  Level Denver Center
09:26PM 36.8983 -110.1261 240° Southwest 402 463 38,000  Level Denver Center
09:27PM 36.8489 -110.2647 246° West 400 460 38,000  Level Denver Center
09:28PM 36.8044 -110.3922 247° West 400 460 38,000  Level Denver Center
09:30PM 36.7589 -110.5200 246° West 404 465 38,000  Level Denver Center
09:31PM 36.6750 -110.7511 246° West 404 465 38,000  Level Los Angeles Center
09:32PM 36.6583 -110.8003 247° West 404 465 38,000  Level Denver Center
09:33PM 36.6133 -110.9278 246° West 403 464 38,000  Level Denver Center
09:34PM 36.5675 -111.0547 246° West 402 463 38,000  Level Denver Center
09:35PM 36.5194 -111.1828 245° Southwest 404 465 38,000  Level Denver Center
09:36PM 36.4636 -111.3339 245° Southwest 403 464 38,000  Level Denver Center
09:37PM 36.4158 -111.4589 245° Southwest 401 461 38,000  Level Denver Center
09:38PM 36.3706 -111.5836 246° West 399 459 38,000  Level Denver Center
09:39PM 36.3497 -111.6347 243° Southwest 398 458 38,000  Level Los Angeles Center
09:40PM 36.2931 -111.7842 245° Southwest 397 457 38,000  Level Los Angeles Center
09:41PM 36.2475 -111.9078 245° Southwest 395 455 38,000  Level Los Angeles Center
09:42PM 36.2008 -112.0308 245° Southwest 395 455 38,000  Level Los Angeles Center
09:43PM 36.1508 -112.1583 244° Southwest 397 457 38,000  Level Los Angeles Center
09:44PM 36.1058 -112.2783 245° Southwest 397 457 38,000  Level Los Angeles Center
09:45PM 36.0486 -112.4253 244° Southwest 396 456 38,000  Level Los Angeles Center
09:46PM 36.0017 -112.5500 245° Southwest 399 459 38,000  Level Los Angeles Center
09:47PM 35.9533 -112.6714 244° Southwest 397 457 38,000  Level Los Angeles Center
09:48PM 35.9067 -112.7919 244° Southwest 397 457 38,000  Level Los Angeles Center
09:49PM 35.8611 -112.9108 245° Southwest 392 451 38,000  Level Los Angeles Center
09:50PM 35.8144 -113.0297 244° Southwest 392 451 38,000  Level Los Angeles Center
09:51PM 35.7681 -113.1472 244° Southwest 388 447 38,000  Level Los Angeles Center
09:52PM 35.7131 -113.2872 244° Southwest 385 443 38,000  Level Los Angeles Center
09:53PM 35.6667 -113.4033 244° Southwest 384 442 38,000  Level Los Angeles Center
09:54PM 35.6203 -113.5192 244° Southwest 383 441 38,000  Level Los Angeles Center
09:55PM 35.5747 -113.6356 244° Southwest 381 438 38,000  Level Los Angeles Center
09:56PM 35.5272 -113.7525 244° Southwest 385 443 38,000  Level Los Angeles Center
09:57PM 35.4800 -113.8692 244° Southwest 385 443 38,000  Level Los Angeles Center
09:58PM 35.4147 -114.0303 244° Southwest 386 444 38,000  Level Los Angeles Center
09:59PM 35.3658 -114.1492 243° Southwest 388 447 38,000  Level Los Angeles Center
10:00PM 35.3178 -114.2658 243° Southwest 384 442 38,000  Level Los Angeles Center
10:01PM 35.2708 -114.3850 244° Southwest 386 444 38,000  Level Los Angeles Center
10:02PM 35.2219 -114.5025 243° Southwest 387 445 38,000  Level Los Angeles Center
10:03PM 35.1717 -114.6217 243° Southwest 391 450 38,000  Level Los Angeles Center
10:05PM 35.1139 -114.7625 243° Southwest 387 445 38,000  Level Los Angeles Center
10:06PM 35.0558 -114.9028 243° Southwest 384 442 38,000  Level Los Angeles Center
10:07PM 35.0083 -115.0175 243° Southwest 382 440 38,000  Level Los Angeles Center
10:08PM 34.9611 -115.1333 244° Southwest 381 438 38,000  Level Los Angeles Center
10:09PM 34.9125 -115.2486 243° Southwest 381 438 38,000  Level Los Angeles Center
10:10PM 34.8644 -115.3611 243° Southwest 376 433 38,000  Level Los Angeles Center
10:11PM 34.8161 -115.4747 243° Southwest 377 434 38,000  Level Los Angeles Center
10:12PM 34.7678 -115.5889 243° Southwest 380 437 38,000  Level Los Angeles Center
10:13PM 34.7192 -115.7044 243° Southwest 384 442 38,000  Level Los Angeles Center
10:14PM 34.6700 -115.8192 243° Southwest 384 442 38,000  Level Los Angeles Center
10:15PM 34.6125 -115.9558 243° Southwest 381 438 38,000  Level Los Angeles Center
10:16PM 34.5631 -116.0692 242° Southwest 381 438 38,000  Level Los Angeles Center
10:17PM 34.5131 -116.1833 242° Southwest 382 440 38,000 -960 Level Los Angeles Center
10:18PM 34.4647 -116.2950 242° Southwest 376 433 36,100 -2,460 Descending Los Angeles Center
10:19PM 34.4153 -116.4092 242° Southwest 381 438 33,000 -2,700 Descending Los Angeles Center
10:20PM 34.3642 -116.5261 242° Southwest 391 450 30,600 -2,340 Descending Los Angeles Center
10:21PM 34.3150 -116.6372 242° Southwest 380 437 28,300 -2,220 Descending Los Angeles Center
10:22PM 34.2664 -116.7489 242° Southwest 375 432 26,100 -2,400 Descending Los Angeles Center
10:23PM 34.2089 -116.8786 242° Southwest 367 422 23,400 -2,400 Descending Los Angeles Center
10:24PM 34.1603 -116.9864 241° Southwest 365 420 21,200 -2,160 Descending Los Angeles Center
10:25PM 34.1125 -117.0978 243° Southwest 363 418 19,000 -2,100 Descending Los Angeles Center
10:26PM 34.1000 -117.1500 254° West 364 419 18,200 -2,280 Descending Southern California TRACON
10:26PM 34.0500 -117.2500 239° Southwest 367 422 16,000 -2,400 Descending Southern California TRACON
10:28PM 34.0333 -117.3667 260° West 353 406 13,500 -2,220 Descending Southern California TRACON
10:29PM 34.0167 -117.4833 260° West 347 399 11,400 -1,680 Descending Southern California TRACON
10:30PM 34.0167 -117.6000 270° West 321 369 10,200 -780 Descending Southern California TRACON
10:31PM 34.0000 -117.7000 259° West 289 333 9,900 -840 Descending Southern California TRACON
10:32PM 34.0000 -117.8000 270° West 282 325 8,600 -1,440 Descending Southern California TRACON
10:33PM 33.9833 -117.9000 259° West 277 319 7,000 -1,200 Descending Southern California TRACON
10:34PM 33.9833 -117.9667 270° West 268 308 6,200 -900 Descending Southern California TRACON
10:35PM 33.9667 -118.0667 259° West 247 284 5,300 -1,020 Descending Southern California TRACON
10:36PM 33.9667 -118.1333 270° West 236 272 4,200 -1,200 Descending Southern California TRACON
10:36PM 33.9564 -118.2000 259° West 229 264 3,100 -1,140 Descending Los Angeles Center
10:37PM 33.9511 -118.2617 264° West 204 235 2,100 -960 Descending Los Angeles Center
10:38PM 33.9450 -118.3156 262° West 182 209 1,200 -780 Descending Los Angeles Center
10:39PM 33.9400 -118.3644 263° West 163 188 500 -540 Descending Los Angeles Center
10:40PM 33.9358 -118.4086 264° West 157 181 200 -300 Descending Los Angeles Center
10:42PM 33.9333 -118.4000 North  Level FlightAware Approximate
10:49PM 33.9425 -118.4081 North  Level Estimated